Time;durP1;ratioP1;P1;durP2;ratioP2;P2;SDS_P1;SDS_P2;PMS_P1;PMS_P2;Temp;Humidity;BMP_temperature;BMP_pressure;BME280_temperature;BME280_humidity;BME280_pressure;Samples;Min_cycle;Max_cycle;Signal;HPM_P1;HPM_P2
2022/10/27 00:01:50;;;;;;;13.53;10.60;;;13.80;1.00;;;;;;5051515;28;20179;-72
2022/10/27 00:04:15;;;;;;;13.60;10.57;;;13.70;1.00;;;;;;5051625;28;20202;-76
2022/10/27 00:06:41;;;;;;;16.60;11.63;;;13.70;1.00;;;;;;5052034;28;20441;-72
2022/10/27 00:09:07;;;;;;;17.37;11.73;;;13.70;1.00;;;;;;5052827;28;20703;-74
2022/10/27 00:11:32;;;;;;;16.30;11.30;;;13.70;1.00;;;;;;5053826;28;20520;-75
2022/10/27 00:13:58;;;;;;;12.00;9.83;;;13.70;1.00;;;;;;5054365;28;20301;-73
2022/10/27 00:16:24;;;;;;;17.50;12.77;;;13.70;1.00;;;;;;5055864;28;20590;-76
2022/10/27 00:18:49;;;;;;;13.60;11.53;;;13.70;1.00;;;;;;5056398;28;20509;-73
2022/10/27 00:21:19;;;;;;;14.60;11.17;;;13.70;1.00;;;;;;5056037;28;20727;-74
2022/10/27 00:23:48;;;;;;;21.13;13.93;;;13.70;1.00;;;;;;5054056;28;20209;-76
2022/10/27 00:26:15;;;;;;;19.77;12.30;;;13.70;1.00;;;;;;5054200;28;20441;-76
2022/10/27 00:28:41;;;;;;;16.83;11.43;;;13.70;1.00;;;;;;5056076;28;20785;-74
2022/10/27 00:31:12;;;;;;;16.40;10.90;;;13.70;1.00;;;;;;5054710;28;20407;-75
2022/10/27 00:33:39;;;;;;;16.13;11.80;;;13.60;1.00;;;;;;5055221;28;20493;-81
2022/10/27 00:36:06;;;;;;;22.80;13.70;;;13.60;1.00;;;;;;5055551;28;20524;-75
2022/10/27 00:38:32;;;;;;;21.40;11.70;;;13.60;1.00;;;;;;5055674;28;20510;-75
2022/10/27 00:40:58;;;;;;;16.23;12.17;;;13.50;1.00;;;;;;5054633;28;20559;-75
2022/10/27 00:43:35;;;;;;;16.47;12.80;;;13.50;1.00;;;;;;5054968;28;20453;-74
2022/10/27 00:46:06;;;;;;;18.93;12.07;;;13.50;1.00;;;;;;5054904;28;20425;-76
2022/10/27 00:48:33;;;;;;;17.00;11.30;;;13.50;1.00;;;;;;5054524;28;20464;-75
2022/10/27 00:51:01;;;;;;;15.47;12.90;;;13.40;1.00;;;;;;5055313;28;20417;-75
2022/10/27 00:53:28;;;;;;;18.63;12.53;;;13.40;1.00;;;;;;5053984;28;20516;-75
2022/10/27 00:55:54;;;;;;;19.70;12.83;;;13.40;1.00;;;;;;5053443;28;20442;-75
2022/10/27 00:58:21;;;;;;;15.33;11.70;;;13.40;1.00;;;;;;5055527;28;20406;-74
2022/10/27 01:00:47;;;;;;;14.87;11.33;;;13.40;1.00;;;;;;5054704;28;20566;-76
2022/10/27 01:03:17;;;;;;;28.77;13.37;;;13.40;1.00;;;;;;5055158;28;20431;-75
2022/10/27 01:05:44;;;;;;;17.40;12.80;;;13.40;1.00;;;;;;5054142;28;20183;-73
2022/10/27 01:08:11;;;;;;;17.93;13.20;;;13.40;1.00;;;;;;5055311;28;20418;-74
2022/10/27 01:10:37;;;;;;;15.17;13.10;;;13.40;1.00;;;;;;5053754;28;20426;-75
2022/10/27 01:13:03;;;;;;;20.17;12.40;;;13.40;1.00;;;;;;5055139;28;20368;-74
2022/10/27 01:15:38;;;;;;;15.03;12.97;;;13.30;1.00;;;;;;5054080;28;20245;-75
2022/10/27 01:18:14;;;;;;;20.53;13.20;;;13.40;1.00;;;;;;5055043;28;20203;-74
2022/10/27 01:20:58;;;;;;;18.53;13.47;;;13.30;1.00;;;;;;5054501;28;20417;-75
2022/10/27 01:23:53;;;;;;;19.23;14.03;;;13.30;1.00;;;;;;5053149;28;20452;-76
2022/10/27 01:26:37;;;;;;;19.10;13.80;;;13.30;6.20;;;;;;5023400;28;20439;-74
2022/10/27 01:29:08;;;;;;;21.20;12.23;;;13.30;13.80;;;;;;5053677;28;20928;-75
2022/10/27 01:31:42;;;;;;;24.07;12.67;;;13.30;22.00;;;;;;5054512;28;20386;-76
2022/10/27 01:34:26;;;;;;;21.00;13.73;;;13.20;21.30;;;;;;5052806;28;20420;-75
2022/10/27 01:37:14;;;;;;;18.60;13.50;;;13.20;17.10;;;;;;5053959;28;20798;-76
2022/10/27 01:40:02;;;;;;;17.70;13.90;;;13.20;25.70;;;;;;5053753;28;20454;-74
2022/10/27 01:42:32;;;;;;;18.03;12.77;;;13.20;21.00;;;;;;5054393;28;20952;-74
2022/10/27 01:44:59;;;;;;;20.37;15.43;;;13.10;21.20;;;;;;5053564;28;20934;-74
2022/10/27 01:47:26;;;;;;;16.03;12.80;;;13.10;9.40;;;;;;5053258;28;20429;-74
2022/10/27 01:49:53;;;;;;;17.87;13.20;;;13.10;12.20;;;;;;5054655;28;20368;-75
2022/10/27 01:52:40;;;;;;;20.40;14.50;;;13.10;15.10;;;;;;5054243;28;20424;-74
2022/10/27 01:55:16;;;;;;;18.27;13.47;;;13.10;27.00;;;;;;5052715;28;20760;-76
2022/10/27 01:58:09;;;;;;;23.60;13.70;;;13.10;30.20;;;;;;5069485;28;20409;-75
2022/10/27 02:01:06;;;;;;;18.20;12.90;;;13.10;30.30;;;;;;5069650;28;20409;-75
2022/10/27 02:03:42;;;;;;;14.53;12.20;;;13.00;43.10;;;;;;5029626;28;20435;-75
2022/10/27 02:06:16;;;;;;;18.27;13.23;;;13.10;44.20;;;;;;5054074;28;20428;-75
2022/10/27 02:08:52;;;;;;;17.40;13.73;;;13.00;58.70;;;;;;5052247;28;20403;-74
2022/10/27 02:11:18;;;;;;;21.50;13.67;;;13.00;65.10;;;;;;5053466;28;20420;-77
2022/10/27 02:13:45;;;;;;;17.20;12.30;;;13.00;70.50;;;;;;5052992;28;20409;-75
2022/10/27 02:16:21;;;;;;;17.17;13.33;;;13.00;75.00;;;;;;5053410;28;20441;-74
2022/10/27 02:18:57;;;;;;;17.57;13.37;;;13.00;81.60;;;;;;5054034;28;20412;-75
2022/10/27 02:21:24;;;;;;;19.00;13.33;;;13.00;82.50;;;;;;5053571;28;20402;-76
2022/10/27 02:23:50;;;;;;;19.20;13.70;;;12.90;71.50;;;;;;5052868;28;20428;-73
2022/10/27 02:26:41;;;;;;;17.50;13.27;;;12.90;80.90;;;;;;5053372;28;20491;-74
2022/10/27 02:29:18;;;;;;;17.30;13.17;;;12.80;71.90;;;;;;5052912;28;20751;-74
2022/10/27 02:31:47;;;;;;;15.57;12.87;;;12.80;73.60;;;;;;5052033;28;20391;-75
2022/10/27 02:34:15;;;;;;;17.27;12.77;;;12.80;67.60;;;;;;5052310;28;20895;-73
2022/10/27 02:36:41;;;;;;;21.60;13.90;;;12.80;71.50;;;;;;5051289;28;20427;-72
2022/10/27 02:39:06;;;;;;;20.93;14.47;;;12.80;71.70;;;;;;5053743;28;21000;-74
2022/10/27 02:41:32;;;;;;;18.67;12.40;;;12.80;74.50;;;;;;5053265;28;20392;-75
2022/10/27 02:43:58;;;;;;;15.13;12.77;;;12.80;73.80;;;;;;5052673;28;20191;-74
2022/10/27 02:46:23;;;;;;;16.30;13.00;;;12.80;79.40;;;;;;5053048;28;20332;-75
2022/10/27 02:48:49;;;;;;;19.50;14.63;;;12.80;78.50;;;;;;5051931;28;20221;-73
2022/10/27 02:51:14;;;;;;;23.43;15.03;;;12.80;72.30;;;;;;5052726;28;20232;-74
2022/10/27 02:53:40;;;;;;;19.60;13.20;;;12.80;72.30;;;;;;5051655;28;20187;-74
2022/10/27 02:56:07;;;;;;;21.50;14.83;;;12.80;69.50;;;;;;5053403;28;20337;-74
2022/10/27 02:58:33;;;;;;;22.33;15.10;;;12.80;68.50;;;;;;5053224;28;20182;-73
2022/10/27 03:00:59;;;;;;;18.10;13.27;;;12.80;81.10;;;;;;5053349;28;20754;-75
2022/10/27 03:03:25;;;;;;;19.63;13.93;;;12.80;82.10;;;;;;5051982;28;20461;-73
2022/10/27 03:05:51;;;;;;;19.23;14.57;;;12.80;83.00;;;;;;5052477;28;20186;-74
2022/10/27 03:08:16;;;;;;;18.43;14.70;;;12.80;82.80;;;;;;5052645;28;20266;-74
2022/10/27 03:10:43;;;;;;;19.93;15.10;;;12.70;85.80;;;;;;5068974;28;20170;-72
2022/10/27 03:13:09;;;;;;;19.80;14.53;;;12.80;96.50;;;;;;5051995;28;20198;-74
2022/10/27 03:15:34;;;;;;;21.97;15.20;;;12.70;99.90;;;;;;5052236;28;20396;-73
2022/10/27 03:18:00;;;;;;;20.27;16.10;;;12.70;99.90;;;;;;5067367;28;20400;-74
2022/10/27 03:20:26;;;;;;;20.90;14.27;;;12.70;99.90;;;;;;5052572;28;20171;-72
2022/10/27 03:22:51;;;;;;;21.43;15.60;;;12.70;99.90;;;;;;5051767;28;20178;-74
2022/10/27 03:25:17;;;;;;;22.63;16.17;;;12.70;99.90;;;;;;5050706;28;20258;-72
2022/10/27 03:27:44;;;;;;;19.90;14.10;;;12.70;99.90;;;;;;5052450;28;20532;-76
2022/10/27 03:30:12;;;;;;;29.70;14.53;;;12.70;99.90;;;;;;5033539;28;20213;-74
2022/10/27 03:32:38;;;;;;;20.47;14.73;;;12.70;99.90;;;;;;5048998;28;20439;-73
2022/10/27 03:35:04;;;;;;;23.40;15.83;;;12.60;99.90;;;;;;5051008;28;20410;-72
2022/10/27 03:37:30;;;;;;;21.60;14.93;;;12.70;99.90;;;;;;5052752;28;20391;-74
2022/10/27 03:39:55;;;;;;;17.63;14.77;;;12.70;99.90;;;;;;5053049;28;20368;-74
2022/10/27 03:42:21;;;;;;;20.80;15.20;;;12.60;99.90;;;;;;5068464;28;20262;-73
2022/10/27 03:44:47;;;;;;;19.30;14.03;;;12.60;99.90;;;;;;5051081;28;20285;-75
2022/10/27 03:47:12;;;;;;;18.90;13.90;;;12.70;99.90;;;;;;5055444;28;20237;-74
2022/10/27 03:49:38;;;;;;;19.23;15.10;;;12.60;99.90;;;;;;5057037;28;20221;-74
2022/10/27 03:52:04;;;;;;;25.43;16.47;;;12.60;99.90;;;;;;5072136;28;20171;-74
2022/10/27 03:54:30;;;;;;;17.73;14.30;;;12.60;99.90;;;;;;5054795;28;20197;-74
2022/10/27 03:56:56;;;;;;;22.03;14.87;;;12.70;99.90;;;;;;5056373;28;20675;-75
2022/10/27 03:59:22;;;;;;;21.10;15.83;;;12.70;99.90;;;;;;5055751;28;20432;-74
2022/10/27 04:01:48;;;;;;;20.43;14.63;;;12.70;99.90;;;;;;5054825;28;20192;-73
2022/10/27 04:04:14;;;;;;;23.47;15.90;;;12.60;99.90;;;;;;5055368;28;20959;-73
2022/10/27 04:06:39;;;;;;;22.40;15.60;;;12.60;99.90;;;;;;5055987;28;20412;-73
2022/10/27 04:09:05;;;;;;;21.20;14.40;;;12.60;99.90;;;;;;5056414;28;20582;-73
2022/10/27 04:11:31;;;;;;;21.10;17.23;;;12.60;99.90;;;;;;5055870;28;20171;-75
2022/10/27 04:13:56;;;;;;;17.83;15.10;;;12.60;99.90;;;;;;5054501;28;20256;-74
2022/10/27 04:16:22;;;;;;;23.03;15.90;;;12.60;99.90;;;;;;5055798;28;20309;-75
2022/10/27 04:18:48;;;;;;;19.30;14.50;;;12.60;99.90;;;;;;5055854;28;20265;-73
2022/10/27 04:21:14;;;;;;;21.57;14.50;;;12.60;99.90;;;;;;5056203;28;20968;-72
2022/10/27 04:23:40;;;;;;;25.57;14.90;;;12.60;99.90;;;;;;5055144;28;20199;-74
2022/10/27 04:26:06;;;;;;;21.60;14.87;;;12.60;99.90;;;;;;5055779;28;20412;-72
2022/10/27 04:28:32;;;;;;;18.13;13.17;;;12.60;99.90;;;;;;5055189;28;20777;-74
2022/10/27 04:30:57;;;;;;;18.33;14.70;;;12.60;99.90;;;;;;5056017;28;20171;-73
2022/10/27 04:33:23;;;;;;;19.53;14.40;;;12.60;99.90;;;;;;5055989;28;20373;-74
2022/10/27 04:35:49;;;;;;;19.40;13.43;;;12.60;99.90;;;;;;5054073;28;20199;-73
2022/10/27 04:38:14;;;;;;;18.43;14.50;;;12.60;99.90;;;;;;5054978;28;20647;-75
2022/10/27 04:40:40;;;;;;;17.80;13.77;;;12.60;99.90;;;;;;5054264;28;20236;-74
2022/10/27 04:43:06;;;;;;;18.63;14.30;;;12.60;99.90;;;;;;5055827;28;20225;-73
2022/10/27 04:45:32;;;;;;;21.93;15.80;;;12.60;99.90;;;;;;5054539;28;20191;-72
2022/10/27 04:47:58;;;;;;;22.37;14.80;;;12.60;99.90;;;;;;5055498;28;20614;-73
2022/10/27 04:50:25;;;;;;;19.47;14.10;;;12.60;99.90;;;;;;5055364;28;20444;-75
2022/10/27 04:52:58;;;;;;;21.50;15.37;;;12.60;99.90;;;;;;5054689;28;20412;-74
2022/10/27 04:55:25;;;;;;;22.47;15.00;;;12.60;99.90;;;;;;5053366;28;20960;-74
2022/10/27 04:57:51;;;;;;;22.20;15.30;;;12.60;99.90;;;;;;5055165;28;20394;-72
2022/10/27 05:00:18;;;;;;;20.60;16.70;;;12.70;99.90;;;;;;5055306;28;20412;-74
2022/10/27 05:02:43;;;;;;;17.77;13.23;;;12.60;99.90;;;;;;5055244;28;20445;-73
2022/10/27 05:05:09;;;;;;;17.30;12.43;;;12.60;99.90;;;;;;5052852;28;20439;-75
2022/10/27 05:07:35;;;;;;;19.60;14.10;;;12.50;99.90;;;;;;5055351;28;20242;-73
2022/10/27 05:10:01;;;;;;;18.00;14.50;;;12.50;99.90;;;;;;5053222;28;20412;-75
2022/10/27 05:12:26;;;;;;;17.63;14.30;;;12.50;99.90;;;;;;5054739;28;20267;-73
2022/10/27 05:14:52;;;;;;;21.53;14.40;;;12.50;99.90;;;;;;5054216;28;20218;-74
2022/10/27 05:17:17;;;;;;;15.67;12.43;;;12.50;99.90;;;;;;5054699;28;20547;-74
2022/10/27 05:19:43;;;;;;;16.57;12.67;;;12.50;99.90;;;;;;5055100;28;20171;-73
2022/10/27 05:22:09;;;;;;;14.57;12.83;;;12.50;99.90;;;;;;5053839;28;20527;-73
2022/10/27 05:24:34;;;;;;;20.63;14.00;;;12.50;99.90;;;;;;5054001;28;20728;-73
2022/10/27 05:27:00;;;;;;;21.70;15.03;;;12.50;99.90;;;;;;5054468;28;20245;-73
2022/10/27 05:29:25;;;;;;;21.77;14.50;;;12.50;99.90;;;;;;5053584;28;20261;-76
2022/10/27 05:31:51;;;;;;;16.93;12.57;;;12.50;99.90;;;;;;5054257;28;20210;-72
2022/10/27 05:34:17;;;;;;;15.53;11.73;;;12.50;99.90;;;;;;5054027;28;20646;-72
2022/10/27 05:36:43;;;;;;;21.07;15.03;;;12.50;99.90;;;;;;5053504;28;20205;-73
2022/10/27 05:39:09;;;;;;;27.63;14.70;;;12.50;99.90;;;;;;5054773;28;20376;-74
2022/10/27 05:41:34;;;;;;;19.57;13.60;;;12.50;99.90;;;;;;5054569;28;20229;-77
2022/10/27 05:44:00;;;;;;;20.33;15.60;;;12.50;99.90;;;;;;5068944;28;20587;-76
2022/10/27 05:46:26;;;;;;;25.03;15.17;;;12.50;99.90;;;;;;5050723;28;20198;-75
2022/10/27 05:48:51;;;;;;;22.63;15.80;;;12.50;99.90;;;;;;5054538;28;20167;-77
2022/10/27 05:51:17;;;;;;;18.93;14.57;;;12.50;99.90;;;;;;5052887;28;20175;-74
2022/10/27 05:53:42;;;;;;;22.03;14.77;;;12.50;99.90;;;;;;5053637;28;20173;-74
2022/10/27 05:56:08;;;;;;;24.90;14.00;;;12.50;99.90;;;;;;5053927;28;20285;-73
2022/10/27 05:58:34;;;;;;;18.27;13.77;;;12.40;99.90;;;;;;5054457;28;20294;-72
2022/10/27 06:00:59;;;;;;;19.40;13.60;;;12.50;99.90;;;;;;5053984;28;20213;-73
2022/10/27 06:03:26;;;;;;;16.77;13.90;;;12.50;99.90;;;;;;5052722;28;20206;-76
2022/10/27 06:05:52;;;;;;;19.80;13.70;;;12.50;99.90;;;;;;5051176;28;20281;-74
2022/10/27 06:08:18;;;;;;;21.73;14.90;;;12.50;99.90;;;;;;5053409;28;20432;-74
2022/10/27 06:10:45;;;;;;;24.87;16.50;;;12.40;99.90;;;;;;5053767;28;20953;-74
2022/10/27 06:13:15;;;;;;;22.27;16.10;;;12.50;99.90;;;;;;5053969;28;20375;-74
2022/10/27 06:15:41;;;;;;;19.97;13.07;;;12.40;99.90;;;;;;5052793;28;20443;-72
2022/10/27 06:18:07;;;;;;;26.67;15.70;;;12.40;99.90;;;;;;5053041;28;20672;-72
2022/10/27 06:20:33;;;;;;;19.30;13.10;;;12.40;99.90;;;;;;5053678;28;20392;-75
2022/10/27 06:22:59;;;;;;;17.40;13.47;;;12.50;99.90;;;;;;5053293;28;20394;-74
2022/10/27 06:25:25;;;;;;;17.80;13.00;;;12.50;99.90;;;;;;5050735;28;20229;-73
2022/10/27 06:27:50;;;;;;;20.87;15.87;;;12.40;99.90;;;;;;5053435;28;20418;-75
2022/10/27 06:30:16;;;;;;;23.30;14.40;;;12.40;99.90;;;;;;5052887;28;20384;-74
2022/10/27 06:32:41;;;;;;;24.03;14.50;;;12.50;99.90;;;;;;5053369;28;20174;-73
2022/10/27 06:35:08;;;;;;;20.00;14.37;;;12.50;99.90;;;;;;5051586;28;20687;-73
2022/10/27 06:37:38;;;;;;;23.03;13.80;;;12.50;99.90;;;;;;5053721;28;20166;-73
2022/10/27 06:40:07;;;;;;;19.80;14.43;;;12.60;99.90;;;;;;5052790;28;20474;-72
2022/10/27 06:42:36;;;;;;;20.87;13.67;;;12.50;99.90;;;;;;5053718;28;20937;-74
2022/10/27 06:45:03;;;;;;;17.17;12.67;;;12.50;99.90;;;;;;5052293;28;20878;-74
2022/10/27 06:47:29;;;;;;;21.90;13.57;;;12.60;99.90;;;;;;5053427;28;20416;-75
2022/10/27 06:49:55;;;;;;;18.53;13.37;;;12.60;99.90;;;;;;5053014;28;20434;-74
2022/10/27 06:52:20;;;;;;;22.17;13.07;;;12.60;99.90;;;;;;5053532;28;20171;-74
2022/10/27 06:54:46;;;;;;;24.30;13.67;;;12.60;99.90;;;;;;5052824;28;20527;-72
2022/10/27 06:57:12;;;;;;;17.17;13.60;;;12.60;99.90;;;;;;5068393;28;20194;-74
2022/10/27 06:59:37;;;;;;;19.20;13.13;;;12.60;99.90;;;;;;5052468;28;20704;-73
2022/10/27 07:02:03;;;;;;;18.40;12.67;;;12.70;99.90;;;;;;5053272;28;20413;-72
2022/10/27 07:04:29;;;;;;;18.03;12.40;;;12.70;99.90;;;;;;5052285;28;20209;-74
2022/10/27 07:06:55;;;;;;;17.40;11.97;;;12.70;99.90;;;;;;5053200;28;20431;-74
2022/10/27 07:09:21;;;;;;;22.17;14.20;;;12.80;99.90;;;;;;5053304;28;20167;-73
2022/10/27 07:11:47;;;;;;;17.37;12.80;;;12.70;99.90;;;;;;5053068;28;20781;-73
2022/10/27 07:14:12;;;;;;;18.97;13.13;;;12.70;99.90;;;;;;5051755;28;20240;-72
2022/10/27 07:16:38;;;;;;;15.53;11.90;;;12.80;99.90;;;;;;5052667;28;20548;-72
2022/10/27 07:19:04;;;;;;;20.00;13.07;;;12.80;99.90;;;;;;5053152;28;20199;-72
2022/10/27 07:21:29;;;;;;;16.87;12.70;;;12.90;99.90;;;;;;5057056;28;20694;-74
2022/10/27 07:23:55;;;;;;;18.27;11.90;;;12.90;99.90;;;;;;5056144;28;20265;-73
2022/10/27 07:26:21;;;;;;;17.43;12.07;;;13.00;99.90;;;;;;5056253;28;20277;-76
2022/10/27 07:28:46;;;;;;;19.17;12.00;;;13.00;99.90;;;;;;5037372;28;20254;-74
2022/10/27 07:31:15;;;;;;;16.20;13.33;;;13.10;99.90;;;;;;5037236;28;20233;-74
2022/10/27 07:33:40;;;;;;;16.83;12.90;;;13.10;99.90;;;;;;5036177;28;20199;-75
2022/10/27 07:36:06;;;;;;;17.20;12.77;;;13.10;99.90;;;;;;5036517;28;20453;-73
2022/10/27 07:38:32;;;;;;;17.87;14.03;;;13.20;99.90;;;;;;5037077;28;20187;-74
2022/10/27 07:40:58;;;;;;;19.80;13.73;;;13.20;99.90;;;;;;5036950;28;20262;-77
2022/10/27 07:43:23;;;;;;;13.13;10.90;;;13.30;99.90;;;;;;5056189;28;20671;-73
2022/10/27 07:45:49;;;;;;;17.37;11.90;;;13.30;99.90;;;;;;5056096;28;20685;-75
2022/10/27 07:48:16;;;;;;;20.30;11.77;;;13.40;99.90;;;;;;5056832;28;20236;-72
2022/10/27 07:50:43;;;;;;;17.50;12.03;;;13.50;99.90;;;;;;5056120;28;20179;-73
2022/10/27 07:53:08;;;;;;;25.60;13.00;;;13.50;99.90;;;;;;5056343;28;20390;-74
2022/10/27 07:55:35;;;;;;;17.93;12.10;;;13.60;99.90;;;;;;5054782;28;20440;-74
2022/10/27 07:58:08;;;;;;;25.87;13.33;;;13.60;99.90;;;;;;5055968;28;20171;-74
2022/10/27 08:00:37;;;;;;;18.77;11.77;;;13.70;99.90;;;;;;5055525;28;20520;-74
2022/10/27 08:03:04;;;;;;;17.80;12.10;;;13.70;99.90;;;;;;5054350;28;20392;-74
2022/10/27 08:05:32;;;;;;;18.50;11.90;;;13.80;99.90;;;;;;5039051;28;20971;-73
2022/10/27 08:08:02;;;;;;;14.60;10.87;;;13.90;99.90;;;;;;5054144;28;20900;-74
2022/10/27 08:10:29;;;;;;;18.40;12.20;;;13.90;99.90;;;;;;5055987;28;20491;-74
2022/10/27 08:12:55;;;;;;;16.00;10.93;;;14.00;99.90;;;;;;5052984;28;20433;-74
2022/10/27 08:15:21;;;;;;;22.90;13.30;;;14.10;99.90;;;;;;5055357;28;20419;-73
2022/10/27 08:17:56;;;;;;;14.60;10.80;;;14.10;99.90;;;;;;5056200;28;20175;-73
2022/10/27 08:20:22;;;;;;;15.20;11.73;;;14.20;99.90;;;;;;5054185;28;20412;-72
2022/10/27 08:23:01;;;;;;;22.00;11.90;;;14.20;99.90;;;;;;5056342;28;20421;-73
2022/10/27 08:25:28;;;;;;;15.23;11.63;;;14.20;99.90;;;;;;5053931;28;20536;-72
2022/10/27 08:27:54;;;;;;;18.67;11.93;;;14.20;99.90;;;;;;5055120;28;20785;-74
2022/10/27 08:30:20;;;;;;;18.33;10.53;;;14.20;99.90;;;;;;5055495;28;20398;-73
2022/10/27 08:32:47;;;;;;;14.20;11.53;;;14.30;99.90;;;;;;5055487;28;20443;-74
2022/10/27 08:35:13;;;;;;;15.97;11.70;;;14.30;99.90;;;;;;5054975;28;20403;-74
2022/10/27 08:37:38;;;;;;;16.77;12.23;;;14.50;99.90;;;;;;5056138;28;20402;-74
2022/10/27 08:40:05;;;;;;;20.77;11.10;;;14.60;99.90;;;;;;5054016;28;20174;-72
2022/10/27 08:42:51;;;;;;;13.80;10.70;;;14.70;99.90;;;;;;5055804;28;20919;-73
2022/10/27 08:45:27;;;;;;;14.33;10.10;;;14.80;99.90;;;;;;5054435;28;20449;-73
2022/10/27 08:47:55;;;;;;;16.23;11.90;;;14.80;99.90;;;;;;5055672;28;20735;-73
2022/10/27 08:50:25;;;;;;;13.97;9.80;;;14.90;99.90;;;;;;5055716;28;20393;-75
2022/10/27 08:53:01;;;;;;;15.90;11.93;;;14.90;99.90;;;;;;5055569;28;20504;-72
2022/10/27 08:55:39;;;;;;;21.13;9.43;;;14.90;99.90;;;;;;5053752;28;20459;-72
2022/10/27 08:58:08;;;;;;;19.23;11.53;;;14.90;99.90;;;;;;5054703;28;20413;-73
2022/10/27 09:00:55;;;;;;;14.80;10.40;;;15.00;99.90;;;;;;5055331;28;20504;-74
2022/10/27 09:03:30;;;;;;;23.53;11.93;;;15.00;99.90;;;;;;5054728;28;20449;-72
2022/10/27 09:06:09;;;;;;;10.47;9.33;;;15.00;99.90;;;;;;5054611;28;20531;-75
2022/10/27 09:08:44;;;;;;;12.03;9.50;;;14.90;99.90;;;;;;5054980;28;20406;-76
2022/10/27 09:11:22;;;;;;;12.03;9.53;;;14.90;99.90;;;;;;5055266;28;20499;-72
2022/10/27 09:14:01;;;;;;;18.93;9.77;;;14.90;99.90;;;;;;5052346;28;20436;-74
2022/10/27 09:16:39;;;;;;;13.37;10.00;;;15.00;99.90;;;;;;5055095;28;20417;-74
2022/10/27 09:19:12;;;;;;;17.53;11.30;;;15.20;99.90;;;;;;5055090;28;20402;-75
2022/10/27 09:21:42;;;;;;;15.43;10.27;;;15.30;99.90;;;;;;5054595;28;20467;-73
2022/10/27 09:24:13;;;;;;;13.33;10.10;;;15.40;99.90;;;;;;5052391;28;20457;-72
2022/10/27 09:26:42;;;;;;;12.43;10.00;;;15.50;99.90;;;;;;5054430;28;20425;-74
2022/10/27 09:29:21;;;;;;;10.97;9.40;;;15.50;99.90;;;;;;5053820;28;20460;-75
2022/10/27 09:31:52;;;;;;;12.63;9.20;;;15.50;99.90;;;;;;5054019;28;20944;-72
2022/10/27 09:34:34;;;;;;;17.37;10.00;;;15.70;99.90;;;;;;5054026;28;20413;-75
2022/10/27 09:37:00;;;;;;;15.30;10.30;;;15.60;99.90;;;;;;5054513;28;20431;-75
2022/10/27 09:39:26;;;;;;;11.23;9.10;;;15.60;99.90;;;;;;5054588;28;20816;-76
2022/10/27 09:41:52;;;;;;;13.20;8.90;;;15.50;97.90;;;;;;5054006;28;20467;-72
2022/10/27 09:44:22;;;;;;;13.80;8.50;;;15.50;97.50;;;;;;5052660;28;20281;-74
2022/10/27 09:46:53;;;;;;;13.80;9.37;;;15.50;94.80;;;;;;5053492;28;20198;-72
2022/10/27 09:49:25;;;;;;;11.20;8.77;;;15.50;95.40;;;;;;5054433;28;20405;-74
2022/10/27 09:51:56;;;;;;;9.70;8.70;;;15.60;99.90;;;;;;5054512;28;20405;-73
2022/10/27 09:54:38;;;;;;;11.13;7.80;;;15.70;99.90;;;;;;5053467;28;20893;-73
2022/10/27 09:57:10;;;;;;;16.30;8.67;;;15.90;99.90;;;;;;5054275;28;20475;-74
2022/10/27 09:59:37;;;;;;;10.53;8.30;;;16.10;99.90;;;;;;5052589;28;20435;-72
2022/10/27 10:02:20;;;;;;;11.23;7.40;;;16.20;89.60;;;;;;5054141;28;20408;-75
2022/10/27 10:04:46;;;;;;;15.77;8.10;;;16.30;76.40;;;;;;5068711;28;20493;-73
2022/10/27 10:07:39;;;;;;;11.10;7.27;;;16.50;68.90;;;;;;5054092;28;20421;-75
2022/10/27 10:10:28;;;;;;;12.10;6.97;;;16.60;38.60;;;;;;5047656;28;20413;-75
2022/10/27 10:13:14;;;;;;;11.00;7.37;;;16.60;1.00;;;;;;5053242;28;20434;-76
2022/10/27 10:15:45;;;;;;;10.90;7.63;;;16.70;1.00;;;;;;5052874;28;20498;-71
2022/10/27 10:18:27;;;;;;;12.63;7.43;;;16.80;1.00;;;;;;5053396;28;20405;-71
2022/10/27 10:21:08;;;;;;;18.73;7.47;;;16.90;1.00;;;;;;5053868;28;20405;-72
2022/10/27 10:23:48;;;;;;;19.67;7.40;;;17.00;1.00;;;;;;5053555;28;20445;-74
2022/10/27 10:26:34;;;;;;;7.60;6.70;;;17.10;1.00;;;;;;5052818;28;20464;-75
2022/10/27 10:29:12;;;;;;;11.03;8.23;;;17.20;1.00;;;;;;5053424;28;20420;-71
2022/10/27 10:31:37;;;;;;;12.90;7.70;;;17.30;1.00;;;;;;5053762;28;20404;-75
2022/10/27 10:34:07;;;;;;;12.53;7.03;;;17.40;1.00;;;;;;5053019;28;20798;-77
2022/10/27 10:36:35;;;;;;;11.33;8.23;;;17.50;1.00;;;;;;5053610;28;20237;-70
2022/10/27 10:39:02;;;;;;;13.27;7.63;;;17.60;1.00;;;;;;5052894;28;20492;-77
2022/10/27 10:41:29;;;;;;;9.50;7.20;;;17.60;1.00;;;;;;5052563;28;20425;-73
2022/10/27 10:44:10;;;;;;;8.03;6.93;;;17.70;1.00;;;;;;5052616;28;20467;-73
2022/10/27 10:46:39;;;;;;;10.80;7.83;;;17.70;1.00;;;;;;5053571;28;20955;-77
2022/10/27 10:49:25;;;;;;;11.63;7.00;;;17.70;1.00;;;;;;5053493;28;20440;-73
2022/10/27 10:51:59;;;;;;;15.83;7.33;;;17.80;1.00;;;;;;5053330;28;20965;-75
2022/10/27 10:54:32;;;;;;;12.63;7.07;;;17.70;1.00;;;;;;5051175;28;20508;-73
2022/10/27 10:56:58;;;;;;;10.30;6.40;;;17.70;1.00;;;;;;5052606;28;20417;-74
2022/10/27 10:59:30;;;;;;;7.40;6.57;;;17.80;1.00;;;;;;5053291;28;20404;-75
2022/10/27 11:02:01;;;;;;;11.70;7.33;;;17.80;1.00;;;;;;5053220;28;20405;-76
2022/10/27 11:04:31;;;;;;;11.40;6.37;;;17.80;1.00;;;;;;5052193;28;20862;-76
2022/10/27 11:07:06;;;;;;;11.30;6.90;;;17.90;1.00;;;;;;5051226;28;20519;-73
2022/10/27 11:09:40;;;;;;;10.80;7.00;;;17.80;99.90;;;;;;5053099;28;20402;-75
2022/10/27 11:12:34;;;;;;;7.13;6.43;;;17.80;99.90;;;;;;5053290;28;20408;-73
2022/10/27 11:15:06;;;;;;;12.37;6.73;;;17.70;99.90;;;;;;5050321;28;20500;-77
2022/10/27 11:17:35;;;;;;;8.30;6.83;;;17.80;99.90;;;;;;5052917;28;20491;-74
2022/10/27 11:20:04;;;;;;;9.30;6.10;;;17.90;99.90;;;;;;5053114;28;20413;-77
2022/10/27 11:22:31;;;;;;;14.97;5.87;;;17.90;99.90;;;;;;5052267;28;21003;-73
2022/10/27 11:25:16;;;;;;;7.20;6.10;;;18.00;99.90;;;;;;5052203;28;20452;-73
2022/10/27 11:27:54;;;;;;;6.80;5.57;;;18.10;99.90;;;;;;5052958;28;20385;-76
2022/10/27 11:30:23;;;;;;;8.40;6.23;;;18.10;99.90;;;;;;5053114;28;20805;-73
2022/10/27 11:33:19;;;;;;;7.53;5.73;;;18.00;99.90;;;;;;5053143;28;20939;-77
2022/10/27 11:36:06;;;;;;;8.80;7.00;;;18.00;99.90;;;;;;5050322;28;20445;-76
2022/10/27 11:38:50;;;;;;;14.03;7.50;;;18.00;99.90;;;;;;5051871;28;20417;-74
2022/10/27 11:41:34;;;;;;;10.93;6.53;;;18.10;99.90;;;;;;5052975;28;20870;-77
2022/10/27 11:44:25;;;;;;;16.10;6.67;;;18.20;99.90;;;;;;5051844;28;20491;-76
2022/10/27 11:47:09;;;;;;;9.47;6.20;;;18.30;99.90;;;;;;5052778;28;21020;-76
2022/10/27 11:50:13;;;;;;;13.83;7.63;;;18.30;99.90;;;;;;5051110;28;20586;-73
2022/10/27 11:52:43;;;;;;;8.47;6.10;;;18.50;99.90;;;;;;5016687;28;20543;-78
2022/10/27 11:55:13;;;;;;;6.90;5.50;;;18.50;99.90;;;;;;5031516;28;20505;-74
2022/10/27 11:57:57;;;;;;;9.90;5.57;;;18.70;99.90;;;;;;5031614;28;20409;-74
2022/10/27 12:00:24;;;;;;;8.13;5.10;;;18.90;99.90;;;;;;5032793;28;20450;-75
2022/10/27 12:03:40;;;;;;;7.80;5.33;;;19.00;99.90;;;;;;5042095;28;20444;-75
2022/10/27 12:06:18;;;;;;;7.90;5.40;;;19.10;99.90;;;;;;5028984;28;20437;-74
2022/10/27 12:09:08;;;;;;;6.73;5.30;;;19.20;99.90;;;;;;5056636;28;20727;-73
2022/10/27 12:11:51;;;;;;;10.47;4.93;;;19.30;99.90;;;;;;5055441;28;20901;-74
2022/10/27 12:14:49;;;;;;;5.10;4.10;;;19.50;99.90;;;;;;5054667;28;20424;-73
2022/10/27 12:17:38;;;;;;;5.90;4.70;;;19.60;99.90;;;;;;5055062;28;20441;-74
2022/10/27 12:20:08;;;;;;;6.60;5.47;;;19.60;99.90;;;;;;5056176;28;20501;-74
2022/10/27 12:22:46;;;;;;;10.43;4.70;;;19.60;99.90;;;;;;5056310;28;20397;-73
2022/10/27 12:25:31;;;;;;;4.60;3.77;;;19.60;99.90;;;;;;5055194;28;20453;-73
2022/10/27 12:28:01;;;;;;;5.57;4.40;;;19.50;99.90;;;;;;5055979;28;20416;-75
2022/10/27 12:30:27;;;;;;;5.77;4.73;;;19.40;99.90;;;;;;5054991;28;20425;-74
2022/10/27 12:33:16;;;;;;;11.23;4.13;;;19.30;99.90;;;;;;5055348;28;20406;-73
2022/10/27 12:36:13;;;;;;;5.50;4.60;;;19.20;99.90;;;;;;5053719;28;20266;-75
2022/10/27 12:39:02;;;;;;;6.80;4.10;;;19.20;99.90;;;;;;5055883;28;20890;-77
2022/10/27 12:41:34;;;;;;;6.90;4.20;;;19.10;99.90;;;;;;5055950;28;20488;-76
2022/10/27 12:44:08;;;;;;;7.73;5.30;;;19.00;99.90;;;;;;5052695;28;20817;-73
2022/10/27 12:46:42;;;;;;;9.93;4.30;;;19.00;99.90;;;;;;5055481;28;20413;-74
2022/10/27 12:49:16;;;;;;;9.00;3.60;;;18.90;99.90;;;;;;5052535;28;20448;-77
2022/10/27 12:51:54;;;;;;;5.47;3.87;;;18.90;99.90;;;;;;5055042;28;20421;-76